sensor_id;sensor_type;location;lat;lon;timestamp;P1;durP1;ratioP1;P2;durP2;ratioP2
15055;SDS011;7626;42.674;23.284;2023-01-28T00:00:08;7.20;;;6.60;;
15055;SDS011;7626;42.674;23.284;2023-01-28T00:02:37;6.63;;;6.03;;
15055;SDS011;7626;42.674;23.284;2023-01-28T00:05:05;6.90;;;6.27;;
15055;SDS011;7626;42.674;23.284;2023-01-28T00:07:34;6.80;;;6.20;;
15055;SDS011;7626;42.674;23.284;2023-01-28T00:10:00;7.23;;;6.53;;
15055;SDS011;7626;42.674;23.284;2023-01-28T00:12:29;7.10;;;6.40;;
15055;SDS011;7626;42.674;23.284;2023-01-28T00:14:56;6.50;;;5.90;;
15055;SDS011;7626;42.674;23.284;2023-01-28T00:17:22;5.93;;;5.43;;
15055;SDS011;7626;42.674;23.284;2023-01-28T00:19:50;6.70;;;6.10;;
15055;SDS011;7626;42.674;23.284;2023-01-28T00:22:17;5.93;;;5.43;;
15055;SDS011;7626;42.674;23.284;2023-01-28T00:24:45;6.30;;;5.70;;
15055;SDS011;7626;42.674;23.284;2023-01-28T00:27:13;7.00;;;6.30;;
15055;SDS011;7626;42.674;23.284;2023-01-28T00:29:43;6.10;;;5.53;;
15055;SDS011;7626;42.674;23.284;2023-01-28T00:32:09;6.07;;;5.57;;
15055;SDS011;7626;42.674;23.284;2023-01-28T00:34:36;6.10;;;5.60;;
15055;SDS011;7626;42.674;23.284;2023-01-28T00:37:04;6.37;;;5.77;;
15055;SDS011;7626;42.674;23.284;2023-01-28T00:39:31;6.70;;;6.10;;
15055;SDS011;7626;42.674;23.284;2023-01-28T00:41:57;5.77;;;5.27;;
15055;SDS011;7626;42.674;23.284;2023-01-28T00:44:24;6.10;;;5.60;;
15055;SDS011;7626;42.674;23.284;2023-01-28T00:46:52;5.83;;;5.37;;
15055;SDS011;7626;42.674;23.284;2023-01-28T00:49:19;5.83;;;5.33;;
15055;SDS011;7626;42.674;23.284;2023-01-28T00:51:46;5.90;;;5.40;;
15055;SDS011;7626;42.674;23.284;2023-01-28T00:54:13;5.77;;;5.37;;
15055;SDS011;7626;42.674;23.284;2023-01-28T00:56:40;5.90;;;5.40;;
15055;SDS011;7626;42.674;23.284;2023-01-28T00:59:06;6.10;;;5.60;;
15055;SDS011;7626;42.674;23.284;2023-01-28T01:01:33;5.67;;;5.17;;
15055;SDS011;7626;42.674;23.284;2023-01-28T01:04:01;5.90;;;5.30;;
15055;SDS011;7626;42.674;23.284;2023-01-28T01:06:30;5.77;;;5.27;;
15055;SDS011;7626;42.674;23.284;2023-01-28T01:08:59;5.60;;;4.97;;
15055;SDS011;7626;42.674;23.284;2023-01-28T01:11:26;6.13;;;5.63;;
15055;SDS011;7626;42.674;23.284;2023-01-28T01:13:53;5.97;;;5.47;;
15055;SDS011;7626;42.674;23.284;2023-01-28T01:16:22;6.07;;;5.57;;
15055;SDS011;7626;42.674;23.284;2023-01-28T01:18:51;5.60;;;5.10;;
15055;SDS011;7626;42.674;23.284;2023-01-28T01:21:20;5.63;;;5.13;;
15055;SDS011;7626;42.674;23.284;2023-01-28T01:23:49;5.23;;;4.83;;
15055;SDS011;7626;42.674;23.284;2023-01-28T01:26:17;5.87;;;5.37;;
15055;SDS011;7626;42.674;23.284;2023-01-28T01:28:44;5.70;;;5.20;;
15055;SDS011;7626;42.674;23.284;2023-01-28T01:31:11;5.90;;;5.40;;
15055;SDS011;7626;42.674;23.284;2023-01-28T01:33:40;5.70;;;5.20;;
15055;SDS011;7626;42.674;23.284;2023-01-28T01:36:07;5.63;;;5.17;;
15055;SDS011;7626;42.674;23.284;2023-01-28T01:38:37;5.67;;;5.10;;
15055;SDS011;7626;42.674;23.284;2023-01-28T01:41:05;5.90;;;5.40;;
15055;SDS011;7626;42.674;23.284;2023-01-28T01:43:46;5.70;;;5.20;;
15055;SDS011;7626;42.674;23.284;2023-01-28T01:46:14;6.00;;;5.40;;
15055;SDS011;7626;42.674;23.284;2023-01-28T01:48:44;5.47;;;4.97;;
15055;SDS011;7626;42.674;23.284;2023-01-28T01:51:12;5.67;;;5.17;;
15055;SDS011;7626;42.674;23.284;2023-01-28T01:53:44;5.77;;;5.27;;
15055;SDS011;7626;42.674;23.284;2023-01-28T01:56:14;5.73;;;5.03;;
15055;SDS011;7626;42.674;23.284;2023-01-28T01:58:44;6.07;;;5.47;;
15055;SDS011;7626;42.674;23.284;2023-01-28T02:01:14;5.60;;;5.20;;
15055;SDS011;7626;42.674;23.284;2023-01-28T02:03:45;6.27;;;5.77;;
15055;SDS011;7626;42.674;23.284;2023-01-28T02:06:26;6.00;;;5.40;;
15055;SDS011;7626;42.674;23.284;2023-01-28T02:08:54;5.63;;;5.13;;
15055;SDS011;7626;42.674;23.284;2023-01-28T02:11:22;6.20;;;5.70;;
15055;SDS011;7626;42.674;23.284;2023-01-28T02:13:52;6.00;;;5.50;;
15055;SDS011;7626;42.674;23.284;2023-01-28T02:16:21;6.13;;;5.63;;
15055;SDS011;7626;42.674;23.284;2023-01-28T02:18:50;5.67;;;5.17;;
15055;SDS011;7626;42.674;23.284;2023-01-28T02:27:13;6.17;;;5.60;;
15055;SDS011;7626;42.674;23.284;2023-01-28T02:29:49;5.53;;;5.03;;
15055;SDS011;7626;42.674;23.284;2023-01-28T02:32:24;5.27;;;4.83;;
15055;SDS011;7626;42.674;23.284;2023-01-28T02:35:02;5.90;;;5.37;;
15055;SDS011;7626;42.674;23.284;2023-01-28T02:37:39;5.53;;;5.03;;
15055;SDS011;7626;42.674;23.284;2023-01-28T02:40:13;5.70;;;5.20;;
15055;SDS011;7626;42.674;23.284;2023-01-28T02:42:45;5.70;;;5.30;;
15055;SDS011;7626;42.674;23.284;2023-01-28T02:45:21;5.37;;;4.97;;
15055;SDS011;7626;42.674;23.284;2023-01-28T02:48:11;5.93;;;5.43;;
15055;SDS011;7626;42.674;23.284;2023-01-28T02:50:41;5.90;;;5.40;;
15055;SDS011;7626;42.674;23.284;2023-01-28T02:53:17;5.83;;;5.33;;
15055;SDS011;7626;42.674;23.284;2023-01-28T02:56:08;5.30;;;4.90;;
15055;SDS011;7626;42.674;23.284;2023-01-28T02:58:43;5.80;;;5.20;;
15055;SDS011;7626;42.674;23.284;2023-01-28T03:01:21;5.43;;;4.93;;
15055;SDS011;7626;42.674;23.284;2023-01-28T03:03:55;5.43;;;5.03;;
15055;SDS011;7626;42.674;23.284;2023-01-28T03:06:26;5.33;;;4.83;;
15055;SDS011;7626;42.674;23.284;2023-01-28T03:09:01;5.37;;;4.97;;
15055;SDS011;7626;42.674;23.284;2023-01-28T03:11:49;6.00;;;5.50;;
15055;SDS011;7626;42.674;23.284;2023-01-28T03:14:37;5.60;;;5.10;;
15055;SDS011;7626;42.674;23.284;2023-01-28T03:17:25;6.17;;;5.67;;
15055;SDS011;7626;42.674;23.284;2023-01-28T03:20:15;5.13;;;4.73;;
15055;SDS011;7626;42.674;23.284;2023-01-28T03:23:02;5.70;;;5.20;;
15055;SDS011;7626;42.674;23.284;2023-01-28T03:25:52;5.83;;;5.33;;
15055;SDS011;7626;42.674;23.284;2023-01-28T03:28:39;5.73;;;5.23;;
15055;SDS011;7626;42.674;23.284;2023-01-28T03:31:25;5.67;;;5.17;;
15055;SDS011;7626;42.674;23.284;2023-01-28T03:34:12;5.73;;;5.23;;
15055;SDS011;7626;42.674;23.284;2023-01-28T03:36:58;6.00;;;5.50;;
15055;SDS011;7626;42.674;23.284;2023-01-28T03:39:26;5.87;;;5.37;;
15055;SDS011;7626;42.674;23.284;2023-01-28T03:41:55;5.50;;;5.00;;
15055;SDS011;7626;42.674;23.284;2023-01-28T03:44:23;5.30;;;4.80;;
15055;SDS011;7626;42.674;23.284;2023-01-28T03:47:08;5.20;;;4.80;;
15055;SDS011;7626;42.674;23.284;2023-01-28T03:49:38;5.57;;;5.13;;
15055;SDS011;7626;42.674;23.284;2023-01-28T03:52:06;5.70;;;5.20;;
15055;SDS011;7626;42.674;23.284;2023-01-28T03:54:33;5.47;;;5.07;;
15055;SDS011;7626;42.674;23.284;2023-01-28T03:56:59;5.43;;;4.93;;
15055;SDS011;7626;42.674;23.284;2023-01-28T03:59:27;5.37;;;4.87;;
15055;SDS011;7626;42.674;23.284;2023-01-28T04:01:54;5.83;;;5.33;;
15055;SDS011;7626;42.674;23.284;2023-01-28T04:04:21;5.13;;;4.73;;
15055;SDS011;7626;42.674;23.284;2023-01-28T04:06:51;5.70;;;5.20;;
15055;SDS011;7626;42.674;23.284;2023-01-28T04:09:19;5.83;;;5.33;;
15055;SDS011;7626;42.674;23.284;2023-01-28T04:11:46;5.10;;;4.70;;
15055;SDS011;7626;42.674;23.284;2023-01-28T04:14:13;5.97;;;5.47;;
15055;SDS011;7626;42.674;23.284;2023-01-28T04:16:40;5.53;;;5.13;;
15055;SDS011;7626;42.674;23.284;2023-01-28T04:19:07;5.40;;;4.90;;
15055;SDS011;7626;42.674;23.284;2023-01-28T04:21:34;5.67;;;5.17;;
15055;SDS011;7626;42.674;23.284;2023-01-28T04:24:03;5.53;;;5.10;;
15055;SDS011;7626;42.674;23.284;2023-01-28T04:26:33;5.80;;;5.30;;
15055;SDS011;7626;42.674;23.284;2023-01-28T04:29:00;5.77;;;5.27;;
15055;SDS011;7626;42.674;23.284;2023-01-28T04:31:26;5.50;;;5.00;;
15055;SDS011;7626;42.674;23.284;2023-01-28T04:33:53;5.73;;;5.30;;
15055;SDS011;7626;42.674;23.284;2023-01-28T04:36:20;5.43;;;5.03;;
15055;SDS011;7626;42.674;23.284;2023-01-28T04:38:47;5.80;;;5.30;;
15055;SDS011;7626;42.674;23.284;2023-01-28T04:41:15;5.40;;;5.00;;
15055;SDS011;7626;42.674;23.284;2023-01-28T04:43:42;5.33;;;4.83;;
15055;SDS011;7626;42.674;23.284;2023-01-28T04:46:08;5.20;;;4.80;;
15055;SDS011;7626;42.674;23.284;2023-01-28T04:48:37;5.93;;;5.37;;
15055;SDS011;7626;42.674;23.284;2023-01-28T04:51:05;5.37;;;4.97;;
15055;SDS011;7626;42.674;23.284;2023-01-28T04:53:32;6.07;;;5.53;;
15055;SDS011;7626;42.674;23.284;2023-01-28T04:56:00;5.67;;;5.17;;
15055;SDS011;7626;42.674;23.284;2023-01-28T04:58:32;5.33;;;4.83;;
15055;SDS011;7626;42.674;23.284;2023-01-28T05:00:59;5.93;;;5.43;;
15055;SDS011;7626;42.674;23.284;2023-01-28T05:03:27;5.47;;;4.97;;
15055;SDS011;7626;42.674;23.284;2023-01-28T05:05:54;5.50;;;5.00;;
15055;SDS011;7626;42.674;23.284;2023-01-28T05:08:22;5.33;;;4.93;;
15055;SDS011;7626;42.674;23.284;2023-01-28T05:10:50;5.70;;;5.20;;
15055;SDS011;7626;42.674;23.284;2023-01-28T05:13:20;5.43;;;4.93;;
15055;SDS011;7626;42.674;23.284;2023-01-28T05:15:52;5.97;;;5.40;;
15055;SDS011;7626;42.674;23.284;2023-01-28T05:18:19;6.13;;;5.60;;
15055;SDS011;7626;42.674;23.284;2023-01-28T05:20:47;5.90;;;5.40;;
15055;SDS011;7626;42.674;23.284;2023-01-28T05:23:13;6.20;;;5.70;;
15055;SDS011;7626;42.674;23.284;2023-01-28T05:25:40;6.20;;;5.60;;
15055;SDS011;7626;42.674;23.284;2023-01-28T05:28:07;6.10;;;5.57;;
15055;SDS011;7626;42.674;23.284;2023-01-28T05:30:34;6.00;;;5.50;;
15055;SDS011;7626;42.674;23.284;2023-01-28T05:33:02;6.27;;;5.73;;
15055;SDS011;7626;42.674;23.284;2023-01-28T05:35:30;5.80;;;5.30;;
15055;SDS011;7626;42.674;23.284;2023-01-28T05:37:57;6.27;;;5.70;;
15055;SDS011;7626;42.674;23.284;2023-01-28T05:40:23;5.90;;;5.40;;
15055;SDS011;7626;42.674;23.284;2023-01-28T05:42:50;5.97;;;5.47;;
15055;SDS011;7626;42.674;23.284;2023-01-28T05:45:19;6.10;;;5.60;;
15055;SDS011;7626;42.674;23.284;2023-01-28T05:47:46;5.73;;;5.23;;
15055;SDS011;7626;42.674;23.284;2023-01-28T05:50:14;5.60;;;5.10;;
15055;SDS011;7626;42.674;23.284;2023-01-28T05:52:42;5.63;;;5.13;;
15055;SDS011;7626;42.674;23.284;2023-01-28T05:55:12;5.93;;;5.43;;
15055;SDS011;7626;42.674;23.284;2023-01-28T05:57:40;5.70;;;5.23;;
15055;SDS011;7626;42.674;23.284;2023-01-28T06:00:10;6.17;;;5.67;;
15055;SDS011;7626;42.674;23.284;2023-01-28T06:02:38;5.97;;;5.47;;
15055;SDS011;7626;42.674;23.284;2023-01-28T06:05:08;6.20;;;5.60;;
15055;SDS011;7626;42.674;23.284;2023-01-28T06:07:36;5.77;;;5.27;;
15055;SDS011;7626;42.674;23.284;2023-01-28T06:10:03;6.20;;;5.70;;
15055;SDS011;7626;42.674;23.284;2023-01-28T06:12:31;5.90;;;5.40;;
15055;SDS011;7626;42.674;23.284;2023-01-28T06:14:59;5.70;;;5.20;;
15055;SDS011;7626;42.674;23.284;2023-01-28T06:17:25;5.90;;;5.40;;
15055;SDS011;7626;42.674;23.284;2023-01-28T06:19:53;5.63;;;5.13;;
15055;SDS011;7626;42.674;23.284;2023-01-28T06:22:22;5.80;;;5.13;;
15055;SDS011;7626;42.674;23.284;2023-01-28T06:24:50;6.03;;;5.53;;
15055;SDS011;7626;42.674;23.284;2023-01-28T06:27:18;5.97;;;5.47;;
15055;SDS011;7626;42.674;23.284;2023-01-28T06:29:45;6.20;;;5.63;;
15055;SDS011;7626;42.674;23.284;2023-01-28T06:32:12;6.00;;;5.40;;
15055;SDS011;7626;42.674;23.284;2023-01-28T06:34:40;5.67;;;5.17;;
15055;SDS011;7626;42.674;23.284;2023-01-28T06:37:11;6.87;;;5.87;;
15055;SDS011;7626;42.674;23.284;2023-01-28T06:39:40;5.90;;;5.40;;
15055;SDS011;7626;42.674;23.284;2023-01-28T06:42:15;5.93;;;5.43;;
15055;SDS011;7626;42.674;23.284;2023-01-28T06:44:43;6.17;;;5.63;;
15055;SDS011;7626;42.674;23.284;2023-01-28T06:47:14;6.30;;;5.70;;
15055;SDS011;7626;42.674;23.284;2023-01-28T06:49:42;6.27;;;5.77;;
15055;SDS011;7626;42.674;23.284;2023-01-28T06:52:09;6.20;;;5.70;;
15055;SDS011;7626;42.674;23.284;2023-01-28T06:54:39;6.30;;;5.80;;
15055;SDS011;7626;42.674;23.284;2023-01-28T06:57:07;5.87;;;5.37;;
15055;SDS011;7626;42.674;23.284;2023-01-28T06:59:38;6.33;;;5.73;;
15055;SDS011;7626;42.674;23.284;2023-01-28T07:02:04;6.37;;;5.80;;
15055;SDS011;7626;42.674;23.284;2023-01-28T07:04:35;6.00;;;5.50;;
15055;SDS011;7626;42.674;23.284;2023-01-28T07:07:01;6.27;;;5.70;;
15055;SDS011;7626;42.674;23.284;2023-01-28T07:09:28;6.07;;;5.53;;
15055;SDS011;7626;42.674;23.284;2023-01-28T07:11:55;6.33;;;5.83;;
15055;SDS011;7626;42.674;23.284;2023-01-28T07:14:23;6.83;;;6.23;;
15055;SDS011;7626;42.674;23.284;2023-01-28T07:16:51;6.80;;;6.10;;
15055;SDS011;7626;42.674;23.284;2023-01-28T07:19:18;6.73;;;6.13;;
15055;SDS011;7626;42.674;23.284;2023-01-28T07:21:46;6.53;;;5.93;;
15055;SDS011;7626;42.674;23.284;2023-01-28T07:24:13;6.83;;;6.23;;
15055;SDS011;7626;42.674;23.284;2023-01-28T07:26:41;6.80;;;6.07;;
15055;SDS011;7626;42.674;23.284;2023-01-28T07:29:10;7.17;;;6.47;;
15055;SDS011;7626;42.674;23.284;2023-01-28T07:31:38;6.97;;;6.37;;
15055;SDS011;7626;42.674;23.284;2023-01-28T07:34:07;7.13;;;6.47;;
15055;SDS011;7626;42.674;23.284;2023-01-28T07:36:36;7.13;;;6.53;;
15055;SDS011;7626;42.674;23.284;2023-01-28T07:39:03;7.23;;;6.53;;
15055;SDS011;7626;42.674;23.284;2023-01-28T07:41:45;7.40;;;6.70;;
15055;SDS011;7626;42.674;23.284;2023-01-28T07:44:13;6.97;;;6.37;;
15055;SDS011;7626;42.674;23.284;2023-01-28T07:46:41;7.20;;;6.53;;
15055;SDS011;7626;42.674;23.284;2023-01-28T07:49:10;7.73;;;7.03;;
15055;SDS011;7626;42.674;23.284;2023-01-28T07:51:54;7.00;;;6.40;;
15055;SDS011;7626;42.674;23.284;2023-01-28T07:54:23;7.17;;;6.57;;
15055;SDS011;7626;42.674;23.284;2023-01-28T07:56:53;7.33;;;6.70;;
15055;SDS011;7626;42.674;23.284;2023-01-28T07:59:23;7.73;;;7.03;;
15055;SDS011;7626;42.674;23.284;2023-01-28T08:01:50;7.23;;;6.63;;
15055;SDS011;7626;42.674;23.284;2023-01-28T08:04:19;7.77;;;7.17;;
15055;SDS011;7626;42.674;23.284;2023-01-28T08:06:47;7.63;;;6.93;;
15055;SDS011;7626;42.674;23.284;2023-01-28T08:09:17;8.77;;;7.97;;
15055;SDS011;7626;42.674;23.284;2023-01-28T08:11:44;8.73;;;7.93;;
15055;SDS011;7626;42.674;23.284;2023-01-28T08:14:11;8.73;;;7.93;;
15055;SDS011;7626;42.674;23.284;2023-01-28T08:16:38;8.70;;;7.80;;
15055;SDS011;7626;42.674;23.284;2023-01-28T08:19:05;8.43;;;7.63;;
15055;SDS011;7626;42.674;23.284;2023-01-28T08:21:33;7.87;;;7.17;;
15055;SDS011;7626;42.674;23.284;2023-01-28T08:24:00;8.70;;;7.90;;
15055;SDS011;7626;42.674;23.284;2023-01-28T08:26:26;8.30;;;7.30;;
15055;SDS011;7626;42.674;23.284;2023-01-28T08:28:53;7.40;;;6.80;;
15055;SDS011;7626;42.674;23.284;2023-01-28T08:31:20;7.63;;;6.90;;
15055;SDS011;7626;42.674;23.284;2023-01-28T08:33:47;7.50;;;6.80;;
15055;SDS011;7626;42.674;23.284;2023-01-28T08:36:13;8.10;;;7.30;;
15055;SDS011;7626;42.674;23.284;2023-01-28T08:38:42;8.47;;;7.67;;
15055;SDS011;7626;42.674;23.284;2023-01-28T08:41:09;7.53;;;6.83;;
15055;SDS011;7626;42.674;23.284;2023-01-28T08:43:35;7.70;;;7.00;;
15055;SDS011;7626;42.674;23.284;2023-01-28T08:46:03;7.77;;;7.07;;
15055;SDS011;7626;42.674;23.284;2023-01-28T08:48:31;7.67;;;6.97;;
15055;SDS011;7626;42.674;23.284;2023-01-28T08:50:58;7.50;;;6.80;;
15055;SDS011;7626;42.674;23.284;2023-01-28T08:53:25;7.40;;;6.70;;
15055;SDS011;7626;42.674;23.284;2023-01-28T08:55:53;7.93;;;7.23;;
15055;SDS011;7626;42.674;23.284;2023-01-28T08:58:20;7.70;;;7.00;;
15055;SDS011;7626;42.674;23.284;2023-01-28T09:00:47;7.60;;;6.80;;
15055;SDS011;7626;42.674;23.284;2023-01-28T09:03:14;8.00;;;7.20;;
15055;SDS011;7626;42.674;23.284;2023-01-28T09:05:41;7.80;;;7.10;;
15055;SDS011;7626;42.674;23.284;2023-01-28T09:08:09;8.37;;;7.57;;
15055;SDS011;7626;42.674;23.284;2023-01-28T09:10:38;7.93;;;7.23;;
15055;SDS011;7626;42.674;23.284;2023-01-28T09:13:07;10.73;;;7.40;;
15055;SDS011;7626;42.674;23.284;2023-01-28T09:15:35;8.10;;;7.30;;
15055;SDS011;7626;42.674;23.284;2023-01-28T09:18:03;8.27;;;7.57;;
15055;SDS011;7626;42.674;23.284;2023-01-28T09:20:30;8.33;;;7.63;;
15055;SDS011;7626;42.674;23.284;2023-01-28T09:22:59;8.37;;;7.57;;
15055;SDS011;7626;42.674;23.284;2023-01-28T09:25:28;8.73;;;7.93;;
15055;SDS011;7626;42.674;23.284;2023-01-28T09:27:54;8.47;;;7.67;;
15055;SDS011;7626;42.674;23.284;2023-01-28T09:30:24;8.33;;;7.53;;
15055;SDS011;7626;42.674;23.284;2023-01-28T09:32:52;8.37;;;7.57;;
15055;SDS011;7626;42.674;23.284;2023-01-28T09:35:19;8.57;;;7.77;;
15055;SDS011;7626;42.674;23.284;2023-01-28T09:37:46;8.20;;;7.40;;
15055;SDS011;7626;42.674;23.284;2023-01-28T09:40:15;8.17;;;7.37;;
15055;SDS011;7626;42.674;23.284;2023-01-28T09:42:48;7.63;;;6.93;;
15055;SDS011;7626;42.674;23.284;2023-01-28T09:45:28;8.63;;;7.83;;
15055;SDS011;7626;42.674;23.284;2023-01-28T09:48:00;8.50;;;7.63;;
15055;SDS011;7626;42.674;23.284;2023-01-28T09:50:31;8.87;;;8.07;;
15055;SDS011;7626;42.674;23.284;2023-01-28T09:53:00;8.70;;;7.90;;
15055;SDS011;7626;42.674;23.284;2023-01-28T09:55:31;8.07;;;7.37;;
15055;SDS011;7626;42.674;23.284;2023-01-28T09:58:02;8.13;;;7.43;;
15055;SDS011;7626;42.674;23.284;2023-01-28T10:00:34;8.33;;;7.57;;
15055;SDS011;7626;42.674;23.284;2023-01-28T10:03:21;7.97;;;7.27;;
15055;SDS011;7626;42.674;23.284;2023-01-28T10:05:58;8.73;;;7.93;;
15055;SDS011;7626;42.674;23.284;2023-01-28T10:08:42;8.83;;;8.03;;
15055;SDS011;7626;42.674;23.284;2023-01-28T10:11:34;9.60;;;8.70;;
15055;SDS011;7626;42.674;23.284;2023-01-28T10:14:14;8.73;;;7.93;;
15055;SDS011;7626;42.674;23.284;2023-01-28T10:16:49;8.33;;;7.53;;
15055;SDS011;7626;42.674;23.284;2023-01-28T10:19:21;8.57;;;7.73;;
15055;SDS011;7626;42.674;23.284;2023-01-28T10:21:52;9.33;;;8.43;;
15055;SDS011;7626;42.674;23.284;2023-01-28T10:24:23;9.50;;;8.60;;
15055;SDS011;7626;42.674;23.284;2023-01-28T10:26:55;9.23;;;8.30;;
15055;SDS011;7626;42.674;23.284;2023-01-28T10:29:23;9.07;;;8.27;;
15055;SDS011;7626;42.674;23.284;2023-01-28T10:31:58;9.70;;;8.80;;
15055;SDS011;7626;42.674;23.284;2023-01-28T10:34:29;8.77;;;7.87;;
15055;SDS011;7626;42.674;23.284;2023-01-28T10:36:56;9.47;;;8.63;;
15055;SDS011;7626;42.674;23.284;2023-01-28T10:39:24;9.70;;;8.80;;
15055;SDS011;7626;42.674;23.284;2023-01-28T10:41:53;9.20;;;8.30;;
15055;SDS011;7626;42.674;23.284;2023-01-28T10:44:20;9.10;;;8.20;;
15055;SDS011;7626;42.674;23.284;2023-01-28T10:47:00;9.57;;;8.67;;
15055;SDS011;7626;42.674;23.284;2023-01-28T10:49:29;9.77;;;8.93;;
15055;SDS011;7626;42.674;23.284;2023-01-28T10:51:58;9.47;;;8.60;;
15055;SDS011;7626;42.674;23.284;2023-01-28T10:54:25;9.30;;;8.40;;
15055;SDS011;7626;42.674;23.284;2023-01-28T10:56:54;9.13;;;8.33;;
15055;SDS011;7626;42.674;23.284;2023-01-28T10:59:25;9.37;;;8.40;;
15055;SDS011;7626;42.674;23.284;2023-01-28T11:01:53;9.10;;;8.30;;
15055;SDS011;7626;42.674;23.284;2023-01-28T11:04:24;8.90;;;8.03;;
15055;SDS011;7626;42.674;23.284;2023-01-28T11:06:54;9.97;;;9.07;;
15055;SDS011;7626;42.674;23.284;2023-01-28T11:09:25;9.27;;;8.47;;
15055;SDS011;7626;42.674;23.284;2023-01-28T11:11:54;8.10;;;7.40;;
15055;SDS011;7626;42.674;23.284;2023-01-28T11:14:22;8.83;;;8.00;;
15055;SDS011;7626;42.674;23.284;2023-01-28T11:16:52;8.03;;;7.33;;
15055;SDS011;7626;42.674;23.284;2023-01-28T11:19:23;8.57;;;7.77;;
15055;SDS011;7626;42.674;23.284;2023-01-28T11:22:00;8.87;;;8.03;;
15055;SDS011;7626;42.674;23.284;2023-01-28T11:24:28;9.07;;;8.23;;
15055;SDS011;7626;42.674;23.284;2023-01-28T11:27:00;9.47;;;8.57;;
15055;SDS011;7626;42.674;23.284;2023-01-28T11:29:38;8.20;;;7.50;;
15055;SDS011;7626;42.674;23.284;2023-01-28T11:32:15;8.93;;;8.13;;
15055;SDS011;7626;42.674;23.284;2023-01-28T11:34:50;8.73;;;7.93;;
15055;SDS011;7626;42.674;23.284;2023-01-28T11:37:19;8.63;;;7.83;;
15055;SDS011;7626;42.674;23.284;2023-01-28T11:39:47;9.07;;;8.17;;
15055;SDS011;7626;42.674;23.284;2023-01-28T11:42:15;9.27;;;8.37;;
15055;SDS011;7626;42.674;23.284;2023-01-28T11:44:44;9.00;;;8.20;;
15055;SDS011;7626;42.674;23.284;2023-01-28T11:50:17;8.83;;;8.03;;
15055;SDS011;7626;42.674;23.284;2023-01-28T11:52:54;9.20;;;8.40;;
15055;SDS011;7626;42.674;23.284;2023-01-28T11:55:34;9.40;;;8.50;;
15055;SDS011;7626;42.674;23.284;2023-01-28T11:58:12;8.97;;;8.17;;
15055;SDS011;7626;42.674;23.284;2023-01-28T12:00:50;9.43;;;8.53;;
15055;SDS011;7626;42.674;23.284;2023-01-28T12:06:40;8.67;;;7.97;;
15055;SDS011;7626;42.674;23.284;2023-01-28T12:09:17;8.43;;;7.63;;
15055;SDS011;7626;42.674;23.284;2023-01-28T12:11:54;8.40;;;7.60;;
15055;SDS011;7626;42.674;23.284;2023-01-28T12:17:36;8.70;;;7.90;;
15055;SDS011;7626;42.674;23.284;2023-01-28T12:20:15;9.37;;;8.47;;
15055;SDS011;7626;42.674;23.284;2023-01-28T12:22:55;8.73;;;7.93;;
15055;SDS011;7626;42.674;23.284;2023-01-28T12:25:43;9.03;;;8.23;;
15055;SDS011;7626;42.674;23.284;2023-01-28T12:28:22;8.53;;;7.73;;
15055;SDS011;7626;42.674;23.284;2023-01-28T12:31:03;9.57;;;8.67;;
15055;SDS011;7626;42.674;23.284;2023-01-28T12:33:48;8.40;;;7.60;;
15055;SDS011;7626;42.674;23.284;2023-01-28T12:36:28;9.13;;;8.33;;
15055;SDS011;7626;42.674;23.284;2023-01-28T12:39:10;9.63;;;8.70;;
15055;SDS011;7626;42.674;23.284;2023-01-28T12:41:50;9.20;;;8.40;;
15055;SDS011;7626;42.674;23.284;2023-01-28T12:44:27;9.60;;;8.70;;
15055;SDS011;7626;42.674;23.284;2023-01-28T12:46:57;9.30;;;8.50;;
15055;SDS011;7626;42.674;23.284;2023-01-28T12:49:28;9.73;;;8.87;;
15055;SDS011;7626;42.674;23.284;2023-01-28T12:52:01;9.67;;;8.77;;
15055;SDS011;7626;42.674;23.284;2023-01-28T12:54:34;9.90;;;9.00;;
15055;SDS011;7626;42.674;23.284;2023-01-28T12:57:08;9.60;;;8.67;;
15055;SDS011;7626;42.674;23.284;2023-01-28T12:59:41;9.53;;;8.63;;
15055;SDS011;7626;42.674;23.284;2023-01-28T13:02:16;9.17;;;8.37;;
15055;SDS011;7626;42.674;23.284;2023-01-28T13:04:50;10.03;;;9.03;;
15055;SDS011;7626;42.674;23.284;2023-01-28T13:07:25;10.23;;;9.33;;
15055;SDS011;7626;42.674;23.284;2023-01-28T13:10:03;9.80;;;8.93;;
15055;SDS011;7626;42.674;23.284;2023-01-28T13:12:35;10.53;;;9.53;;
15055;SDS011;7626;42.674;23.284;2023-01-28T13:15:09;10.17;;;9.27;;
15055;SDS011;7626;42.674;23.284;2023-01-28T13:17:39;9.77;;;8.87;;
15055;SDS011;7626;42.674;23.284;2023-01-28T13:20:28;9.43;;;8.60;;
15055;SDS011;7626;42.674;23.284;2023-01-28T13:23:00;9.60;;;8.70;;
15055;SDS011;7626;42.674;23.284;2023-01-28T13:25:32;13.97;;;12.23;;
15055;SDS011;7626;42.674;23.284;2023-01-28T13:28:00;12.27;;;11.07;;
15055;SDS011;7626;42.674;23.284;2023-01-28T13:30:29;11.50;;;10.30;;
15055;SDS011;7626;42.674;23.284;2023-01-28T13:32:58;12.07;;;10.87;;
15055;SDS011;7626;42.674;23.284;2023-01-28T13:35:30;12.00;;;10.80;;
15055;SDS011;7626;42.674;23.284;2023-01-28T13:38:04;11.83;;;10.63;;
15055;SDS011;7626;42.674;23.284;2023-01-28T13:40:35;11.67;;;10.57;;
15055;SDS011;7626;42.674;23.284;2023-01-28T13:43:23;11.63;;;10.53;;
15055;SDS011;7626;42.674;23.284;2023-01-28T13:45:56;12.30;;;10.10;;
15055;SDS011;7626;42.674;23.284;2023-01-28T13:48:28;16.93;;;9.93;;
15055;SDS011;7626;42.674;23.284;2023-01-28T13:50:57;34.33;;;12.27;;
15055;SDS011;7626;42.674;23.284;2023-01-28T13:53:35;38.77;;;13.30;;
15055;SDS011;7626;42.674;23.284;2023-01-28T13:56:16;30.67;;;12.17;;
15055;SDS011;7626;42.674;23.284;2023-01-28T14:05:10;27.63;;;11.40;;
15055;SDS011;7626;42.674;23.284;2023-01-28T14:11:02;25.90;;;11.37;;
15055;SDS011;7626;42.674;23.284;2023-01-28T14:13:45;25.40;;;11.23;;
15055;SDS011;7626;42.674;23.284;2023-01-28T14:16:31;20.97;;;11.10;;
15055;SDS011;7626;42.674;23.284;2023-01-28T14:19:08;18.53;;;10.70;;
15055;SDS011;7626;42.674;23.284;2023-01-28T14:21:38;22.37;;;10.47;;
15055;SDS011;7626;42.674;23.284;2023-01-28T14:24:09;15.20;;;10.27;;
15055;SDS011;7626;42.674;23.284;2023-01-28T14:26:44;18.47;;;10.57;;
15055;SDS011;7626;42.674;23.284;2023-01-28T14:29:20;17.83;;;10.80;;
15055;SDS011;7626;42.674;23.284;2023-01-28T14:31:56;16.50;;;9.90;;
15055;SDS011;7626;42.674;23.284;2023-01-28T14:34:29;12.67;;;9.20;;
15055;SDS011;7626;42.674;23.284;2023-01-28T14:36:59;16.30;;;10.10;;
15055;SDS011;7626;42.674;23.284;2023-01-28T14:39:30;15.30;;;10.40;;
15055;SDS011;7626;42.674;23.284;2023-01-28T14:42:02;16.60;;;9.93;;
15055;SDS011;7626;42.674;23.284;2023-01-28T14:44:31;14.13;;;10.03;;
15055;SDS011;7626;42.674;23.284;2023-01-28T14:50:03;15.83;;;10.30;;
15055;SDS011;7626;42.674;23.284;2023-01-28T14:52:46;15.40;;;10.17;;
15055;SDS011;7626;42.674;23.284;2023-01-28T14:55:25;11.77;;;10.40;;
15055;SDS011;7626;42.674;23.284;2023-01-28T14:58:00;12.80;;;9.63;;
15055;SDS011;7626;42.674;23.284;2023-01-28T15:00:32;12.50;;;9.97;;
15055;SDS011;7626;42.674;23.284;2023-01-28T15:03:07;14.07;;;10.33;;
15055;SDS011;7626;42.674;23.284;2023-01-28T15:05:36;12.30;;;9.53;;
15055;SDS011;7626;42.674;23.284;2023-01-28T15:08:03;11.40;;;9.97;;
15055;SDS011;7626;42.674;23.284;2023-01-28T15:10:31;12.00;;;10.00;;
15055;SDS011;7626;42.674;23.284;2023-01-28T15:13:03;10.23;;;9.13;;
15055;SDS011;7626;42.674;23.284;2023-01-28T15:15:34;13.00;;;10.03;;
15055;SDS011;7626;42.674;23.284;2023-01-28T15:18:05;11.13;;;9.57;;
15055;SDS011;7626;42.674;23.284;2023-01-28T15:20:42;10.50;;;9.40;;
15055;SDS011;7626;42.674;23.284;2023-01-28T15:23:11;10.57;;;9.47;;
15055;SDS011;7626;42.674;23.284;2023-01-28T15:25:41;11.83;;;8.97;;
15055;SDS011;7626;42.674;23.284;2023-01-28T15:28:11;10.17;;;9.17;;
15055;SDS011;7626;42.674;23.284;2023-01-28T15:30:46;9.80;;;8.80;;
15055;SDS011;7626;42.674;23.284;2023-01-28T15:33:14;9.87;;;8.83;;
15055;SDS011;7626;42.674;23.284;2023-01-28T15:35:45;10.27;;;9.23;;